createdAt,value
2023-04-28T00:00:08.383Z,8.25
2023-04-28T00:02:27.912Z,9.60
2023-04-28T00:04:45.072Z,9.15
2023-04-28T00:07:02.182Z,10.50
2023-04-28T00:09:20.265Z,11.80
2023-04-28T00:11:38.426Z,12.15
2023-04-28T00:13:55.344Z,10.75
2023-04-28T00:16:12.405Z,11.13
2023-04-28T00:18:29.368Z,11.02
2023-04-28T00:20:46.446Z,8.63
2023-04-28T00:23:04.696Z,9.38
2023-04-28T00:25:22.179Z,9.23
2023-04-28T00:27:39.481Z,10.68
2023-04-28T00:29:57.783Z,11.68
2023-04-28T00:32:15.743Z,13.13
2023-04-28T00:34:32.799Z,10.68
2023-04-28T00:36:50.064Z,15.23
2023-04-28T00:39:07.335Z,10.65
2023-04-28T00:41:24.370Z,10.55
2023-04-28T00:43:41.633Z,12.32
2023-04-28T00:45:58.698Z,13.15
2023-04-28T00:48:15.769Z,12.15
2023-04-28T00:50:32.808Z,13.68
2023-04-28T00:52:49.744Z,9.57
2023-04-28T00:55:06.988Z,12.73
2023-04-28T00:57:24.925Z,13.82
2023-04-28T00:59:41.979Z,10.52
2023-04-28T01:01:59.020Z,13.70
2023-04-28T01:04:16.406Z,12.02
2023-04-28T01:06:34.097Z,13.15
2023-04-28T01:08:51.157Z,15.68
2023-04-28T01:11:08.460Z,12.20
2023-04-28T01:13:25.508Z,13.93
2023-04-28T01:15:42.507Z,10.98
2023-04-28T01:17:59.768Z,13.35
2023-04-28T01:20:16.831Z,12.65
2023-04-28T01:22:34.102Z,10.75
2023-04-28T01:24:51.443Z,12.10
2023-04-28T01:27:08.468Z,10.85
2023-04-28T01:29:25.692Z,14.07
2023-04-28T01:31:43.636Z,13.85
2023-04-28T01:34:00.921Z,13.63
2023-04-28T01:36:17.932Z,12.13
2023-04-28T01:38:35.149Z,14.35
2023-04-28T01:40:52.103Z,11.00
2023-04-28T01:43:10.355Z,11.43
2023-04-28T01:45:27.430Z,14.35
2023-04-28T01:47:44.513Z,12.27
2023-04-28T01:50:01.533Z,13.88
2023-04-28T01:52:18.589Z,12.25
2023-04-28T01:54:35.574Z,13.15
2023-04-28T01:56:52.586Z,12.15
2023-04-28T01:59:09.486Z,15.38
2023-04-28T02:01:26.489Z,14.60
2023-04-28T02:03:44.851Z,11.57
2023-04-28T02:06:02.039Z,13.13
2023-04-28T02:08:19.252Z,15.30
2023-04-28T02:10:36.233Z,13.90
2023-04-28T02:12:53.116Z,11.07
2023-04-28T02:15:10.401Z,12.68
2023-04-28T02:17:28.675Z,15.90
2023-04-28T02:19:45.827Z,15.18
2023-04-28T02:22:02.834Z,14.23
2023-04-28T02:24:19.856Z,12.07
2023-04-28T02:26:36.880Z,11.73
2023-04-28T02:28:54.925Z,12.52
2023-04-28T02:31:12.228Z,11.73
2023-04-28T02:33:29.226Z,11.80
2023-04-28T02:35:46.200Z,12.10
2023-04-28T02:38:03.262Z,15.07
2023-04-28T02:40:20.289Z,10.23
2023-04-28T02:42:38.398Z,12.45
2023-04-28T02:44:55.456Z,14.68
2023-04-28T02:47:12.787Z,12.07
2023-04-28T02:49:29.921Z,13.52
2023-04-28T02:51:46.869Z,12.27
2023-04-28T02:54:04.810Z,13.07
2023-04-28T02:56:22.071Z,15.05
2023-04-28T02:58:39.088Z,14.25
2023-04-28T03:00:56.196Z,15.30
2023-04-28T03:03:14.510Z,18.70
2023-04-28T03:05:32.063Z,14.77
2023-04-28T03:07:48.976Z,14.68
2023-04-28T03:10:06.385Z,15.43
2023-04-28T03:12:23.388Z,11.98
2023-04-28T03:14:41.362Z,11.95
2023-04-28T03:16:58.403Z,11.65
2023-04-28T03:19:15.644Z,12.13
2023-04-28T03:21:32.776Z,13.40
2023-04-28T03:23:50.154Z,11.38
2023-04-28T03:26:07.190Z,11.35
2023-04-28T03:28:24.084Z,12.93
2023-04-28T03:30:41.129Z,12.23
2023-04-28T03:32:59.252Z,13.50
2023-04-28T03:35:16.620Z,12.52
2023-04-28T03:37:33.590Z,13.82
2023-04-28T03:39:51.412Z,16.02
2023-04-28T03:42:08.484Z,13.25
2023-04-28T03:44:25.734Z,13.77
2023-04-28T03:46:43.114Z,15.20
2023-04-28T03:49:01.373Z,15.38
2023-04-28T03:51:18.491Z,12.82
2023-04-28T03:53:35.961Z,16.05
2023-04-28T03:55:53.069Z,15.18
2023-04-28T03:58:09.979Z,15.20
2023-04-28T04:00:27.046Z,13.82
2023-04-28T04:02:44.427Z,15.27
2023-04-28T04:05:02.318Z,14.82
2023-04-28T04:07:20.509Z,13.93
2023-04-28T04:09:37.829Z,14.48
2023-04-28T04:11:54.921Z,15.13
2023-04-28T04:14:13.294Z,14.75
2023-04-28T04:16:30.527Z,14.13
2023-04-28T04:18:48.063Z,13.30
2023-04-28T04:21:06.251Z,14.82
2023-04-28T04:23:23.298Z,16.58
2023-04-28T04:25:40.916Z,15.15
2023-04-28T04:27:58.192Z,14.40
2023-04-28T04:30:15.288Z,14.77
2023-04-28T04:32:32.584Z,20.77
2023-04-28T04:34:49.850Z,20.00
2023-04-28T04:37:07.042Z,17.13
2023-04-28T04:39:24.053Z,19.88
2023-04-28T04:41:41.358Z,14.88
2023-04-28T04:43:58.687Z,13.70
2023-04-28T04:46:16.182Z,17.35
2023-04-28T04:48:33.783Z,13.32
2023-04-28T04:50:50.831Z,17.85
2023-04-28T04:53:10.589Z,18.25
2023-04-28T04:55:30.641Z,14.75
2023-04-28T04:57:47.533Z,16.40
2023-04-28T05:00:04.376Z,18.83
2023-04-28T05:02:21.809Z,15.40
2023-04-28T05:04:39.214Z,15.70
2023-04-28T05:06:56.638Z,18.55
2023-04-28T05:09:13.707Z,14.77
2023-04-28T05:11:30.808Z,17.88
2023-04-28T05:13:48.113Z,17.10
2023-04-28T05:16:05.135Z,15.63
2023-04-28T05:18:22.075Z,18.40
2023-04-28T05:20:39.385Z,18.23
2023-04-28T05:22:56.450Z,17.10
2023-04-28T05:25:14.339Z,21.25
2023-04-28T05:27:31.279Z,17.55
2023-04-28T05:29:48.337Z,16.58
2023-04-28T05:32:05.691Z,16.10
2023-04-28T05:34:24.007Z,17.80
2023-04-28T05:36:41.263Z,21.13
2023-04-28T05:38:58.731Z,18.58
2023-04-28T05:41:18.656Z,19.50
2023-04-28T05:43:35.654Z,17.55
2023-04-28T05:45:52.911Z,17.15
2023-04-28T05:48:10.084Z,20.25
2023-04-28T05:50:27.197Z,16.13
2023-04-28T05:52:45.162Z,15.63
2023-04-28T05:55:02.251Z,17.73
2023-04-28T05:57:19.159Z,16.48
2023-04-28T05:59:36.457Z,17.48
2023-04-28T06:01:53.759Z,20.08
2023-04-28T06:04:11.059Z,18.88
2023-04-28T06:06:29.577Z,20.55
2023-04-28T06:08:47.132Z,17.13
2023-04-28T06:11:04.149Z,17.10
2023-04-28T06:13:22.002Z,17.10
2023-04-28T06:15:39.362Z,17.48
2023-04-28T06:17:56.438Z,18.50
2023-04-28T06:20:13.598Z,18.23
2023-04-28T06:22:30.677Z,14.63
2023-04-28T06:24:47.921Z,15.45
2023-04-28T06:27:06.045Z,16.27
2023-04-28T06:29:23.263Z,16.13
2023-04-28T06:31:41.641Z,16.70
2023-04-28T06:33:58.566Z,15.55
2023-04-28T06:36:15.870Z,16.33
2023-04-28T06:38:33.903Z,16.67
2023-04-28T06:40:51.222Z,18.38
2023-04-28T06:43:08.562Z,17.35
2023-04-28T06:45:25.606Z,17.60
2023-04-28T06:47:43.901Z,17.42
2023-04-28T06:50:01.173Z,17.08
2023-04-28T06:52:19.117Z,18.52
2023-04-28T06:54:37.023Z,16.20
2023-04-28T06:56:53.994Z,19.63
2023-04-28T06:59:11.660Z,18.70
2023-04-28T07:01:29.081Z,18.02
2023-04-28T07:03:47.429Z,18.02
2023-04-28T07:06:04.858Z,18.73
2023-04-28T07:08:23.295Z,13.38
2023-04-28T07:10:40.302Z,14.18
2023-04-28T07:12:57.745Z,14.70
2023-04-28T07:15:15.013Z,13.45
2023-04-28T07:17:31.974Z,14.77
2023-04-28T07:19:49.027Z,14.63
2023-04-28T07:22:06.318Z,13.77
2023-04-28T07:24:23.615Z,14.52
2023-04-28T07:26:40.660Z,11.82
2023-04-28T07:28:57.992Z,12.55
2023-04-28T07:31:16.279Z,13.30
2023-04-28T07:33:33.574Z,12.75
2023-04-28T07:35:50.808Z,13.25
2023-04-28T07:38:08.041Z,13.95
2023-04-28T07:40:26.103Z,11.00
2023-04-28T07:42:43.420Z,13.15
2023-04-28T07:45:00.644Z,10.02
2023-04-28T07:47:17.596Z,12.07
2023-04-28T07:49:34.847Z,9.07
2023-04-28T07:51:52.087Z,13.43
2023-04-28T07:54:09.373Z,9.73
2023-04-28T07:56:26.394Z,13.43
2023-04-28T07:58:43.681Z,10.57
2023-04-28T08:01:01.713Z,10.05
2023-04-28T08:03:20.025Z,9.20
2023-04-28T08:05:37.324Z,9.57
2023-04-28T08:07:54.409Z,10.73
2023-04-28T08:10:11.451Z,9.20
2023-04-28T08:12:28.648Z,10.07
2023-04-28T08:14:46.676Z,9.10
2023-04-28T08:17:03.986Z,8.98
2023-04-28T08:19:21.268Z,10.75
2023-04-28T08:21:38.536Z,10.60
2023-04-28T08:23:55.544Z,13.52
2023-04-28T08:26:12.865Z,9.68
2023-04-28T08:28:30.890Z,10.63
2023-04-28T08:30:48.126Z,10.18
2023-04-28T08:33:07.297Z,9.68
2023-04-28T08:35:24.693Z,9.90
2023-04-28T08:37:41.672Z,11.18
2023-04-28T08:39:58.673Z,9.55
2023-04-28T08:42:15.712Z,10.63
2023-04-28T08:44:32.987Z,10.40
2023-04-28T08:46:50.425Z,25.70
2023-04-28T08:49:07.528Z,15.07
2023-04-28T08:51:24.855Z,9.75
2023-04-28T08:54:06.123Z,13.77
2023-04-28T08:56:19.129Z,9.40
2023-04-28T08:58:36.330Z,9.40
2023-04-28T09:00:53.302Z,12.32
2023-04-28T09:03:10.517Z,11.45
2023-04-28T09:05:27.891Z,10.57
2023-04-28T09:07:46.081Z,10.93
2023-04-28T09:10:03.009Z,10.20
2023-04-28T09:12:19.974Z,8.85
2023-04-28T09:14:36.796Z,10.02
2023-04-28T09:16:53.864Z,10.15
2023-04-28T09:19:10.908Z,9.68
2023-04-28T09:21:28.819Z,10.02
2023-04-28T09:23:45.763Z,11.23
2023-04-28T09:26:02.689Z,9.38
2023-04-28T09:28:19.606Z,9.13
2023-04-28T09:30:36.674Z,10.68
2023-04-28T09:32:53.687Z,8.88
2023-04-28T09:35:10.651Z,9.77
2023-04-28T09:37:27.908Z,11.57
2023-04-28T09:39:44.985Z,9.57
2023-04-28T09:42:01.924Z,9.50
2023-04-28T09:44:19.567Z,7.72
2023-04-28T09:46:37.126Z,7.25
2023-04-28T09:48:54.261Z,7.78
2023-04-28T09:51:13.056Z,7.38
2023-04-28T09:53:30.322Z,7.57
2023-04-28T09:55:47.609Z,6.80
2023-04-28T09:58:04.867Z,6.80
2023-04-28T10:00:21.898Z,8.50
2023-04-28T10:02:43.866Z,9.75
2023-04-28T10:05:01.531Z,7.85
2023-04-28T10:07:18.746Z,10.68
2023-04-28T10:09:36.034Z,8.02
2023-04-28T10:11:54.063Z,7.30
2023-04-28T10:14:11.315Z,10.30
2023-04-28T10:16:28.475Z,6.63
2023-04-28T10:18:45.788Z,8.60
2023-04-28T10:21:02.866Z,6.78
2023-04-28T10:23:19.776Z,7.90
2023-04-28T10:25:37.283Z,7.38
2023-04-28T10:27:55.247Z,16.80
2023-04-28T10:30:22.895Z,9.90
2023-04-28T10:32:43.114Z,9.65
2023-04-28T10:35:00.203Z,7.75
2023-04-28T10:37:17.451Z,8.43
2023-04-28T10:39:35.467Z,7.85
2023-04-28T10:41:53.352Z,11.38
2023-04-28T10:44:10.279Z,8.65
2023-04-28T10:46:27.254Z,8.35
2023-04-28T10:48:44.302Z,10.60
2023-04-28T10:51:01.283Z,11.40
2023-04-28T10:53:21.125Z,11.80
2023-04-28T10:55:38.044Z,11.48
2023-04-28T10:57:55.245Z,10.88
2023-04-28T11:00:12.594Z,8.40
2023-04-28T11:02:30.004Z,8.40
2023-04-28T11:04:47.510Z,10.18
2023-04-28T11:07:04.907Z,8.13
2023-04-28T11:09:21.922Z,8.98
2023-04-28T11:11:39.023Z,11.48
2023-04-28T11:13:56.400Z,9.35
2023-04-28T11:16:13.507Z,17.92
2023-04-28T11:18:30.811Z,9.70
2023-04-28T11:20:47.813Z,9.13
2023-04-28T11:23:06.065Z,10.43
2023-04-28T11:25:23.003Z,9.40
2023-04-28T11:27:40.231Z,9.70
2023-04-28T11:29:57.300Z,8.00
2023-04-28T11:32:14.327Z,10.00
2023-04-28T11:34:31.406Z,9.13
2023-04-28T11:36:48.456Z,10.95
2023-04-28T11:39:06.504Z,9.25
2023-04-28T11:41:23.581Z,8.10
2023-04-28T11:43:47.424Z,10.60
2023-04-28T11:48:21.856Z,7.38
2023-04-28T11:50:38.899Z,8.43
2023-04-28T11:52:56.833Z,8.13
2023-04-28T11:55:14.087Z,6.95
2023-04-28T11:57:31.094Z,8.38
2023-04-28T11:59:49.065Z,5.88
2023-04-28T12:02:06.656Z,10.05
2023-04-28T12:04:23.959Z,6.25
2023-04-28T12:06:40.928Z,5.40
2023-04-28T12:08:57.918Z,6.53
2023-04-28T12:11:18.345Z,5.50
2023-04-28T12:13:36.688Z,6.18
2023-04-28T12:15:54.023Z,5.47
2023-04-28T12:18:11.386Z,3.95
2023-04-28T12:20:28.434Z,8.02
2023-04-28T12:22:46.798Z,5.07
2023-04-28T12:25:03.905Z,4.45
2023-04-28T12:27:20.960Z,4.03
2023-04-28T12:29:37.862Z,5.03
2023-04-28T12:31:54.876Z,7.30
2023-04-28T12:34:12.152Z,3.75
2023-04-28T12:36:29.047Z,2.17
2023-04-28T12:38:46.242Z,3.20
2023-04-28T12:41:03.132Z,4.32
2023-04-28T12:43:20.401Z,1.73
2023-04-28T12:45:38.882Z,1.33
2023-04-28T12:47:56.180Z,2.03
2023-04-28T12:50:14.425Z,0.77
2023-04-28T12:52:31.849Z,0.90
2023-04-28T12:54:48.853Z,1.48
2023-04-28T12:57:05.816Z,2.08
2023-04-28T12:59:23.023Z,0.63
2023-04-28T13:01:40.150Z,1.05
2023-04-28T13:03:57.496Z,1.85
2023-04-28T13:06:15.563Z,1.00
2023-04-28T13:08:32.592Z,0.60
2023-04-28T13:10:50.926Z,1.45
2023-04-28T13:13:07.921Z,0.50
2023-04-28T13:15:24.996Z,2.08
2023-04-28T13:17:42.323Z,1.92
2023-04-28T13:19:59.376Z,0.60
2023-04-28T13:22:16.397Z,0.60
2023-04-28T13:24:33.580Z,0.40
2023-04-28T13:26:51.046Z,3.17
2023-04-28T13:29:08.405Z,2.10
2023-04-28T13:31:25.441Z,1.33
2023-04-28T13:33:42.736Z,0.50
2023-04-28T13:35:59.977Z,0.50
2023-04-28T13:38:16.998Z,1.70
2023-04-28T13:40:34.023Z,1.88
2023-04-28T13:42:51.267Z,1.95
2023-04-28T13:45:08.503Z,0.50
2023-04-28T13:47:25.616Z,0.88
2023-04-28T13:49:42.626Z,0.73
2023-04-28T13:51:59.654Z,1.23
2023-04-28T13:54:16.725Z,0.80
2023-04-28T13:56:33.870Z,1.98
2023-04-28T13:58:51.315Z,1.80
2023-04-28T14:01:08.365Z,3.22
2023-04-28T14:03:25.726Z,0.75
2023-04-28T14:05:49.553Z,2.75
2023-04-28T14:10:24.097Z,2.72
2023-04-28T14:12:41.022Z,2.65
2023-04-28T14:14:57.979Z,2.13
2023-04-28T14:17:15.250Z,2.50
2023-04-28T14:19:32.244Z,2.67
2023-04-28T14:21:49.251Z,4.47
2023-04-28T14:24:06.170Z,3.55
2023-04-28T14:26:23.087Z,3.70
2023-04-28T14:28:40.155Z,2.60
2023-04-28T14:30:58.169Z,4.63
2023-04-28T14:33:16.229Z,4.68
2023-04-28T14:35:34.455Z,3.42
2023-04-28T14:37:51.493Z,4.57
2023-04-28T14:40:08.603Z,2.45
2023-04-28T14:42:26.008Z,2.50
2023-04-28T14:44:43.248Z,2.72
2023-04-28T14:47:00.517Z,2.80
2023-04-28T14:49:17.572Z,1.77
2023-04-28T14:51:34.884Z,1.80
2023-04-28T14:53:51.863Z,1.17
2023-04-28T14:56:18.656Z,3.35
2023-04-28T14:58:37.806Z,2.67
2023-04-28T15:00:54.879Z,1.77
2023-04-28T15:03:12.050Z,3.05
2023-04-28T15:05:30.845Z,4.40
2023-04-28T15:07:47.824Z,2.22
2023-04-28T15:10:05.843Z,0.90
2023-04-28T15:12:23.119Z,2.45
2023-04-28T15:14:40.047Z,2.45
2023-04-28T15:16:57.283Z,4.22
2023-04-28T15:19:14.595Z,0.55
2023-04-28T15:21:31.619Z,3.40
2023-04-28T15:23:48.890Z,0.98
2023-04-28T15:26:05.781Z,1.08
2023-04-28T15:28:23.060Z,0.90
2023-04-28T15:30:43.118Z,1.67
2023-04-28T15:33:00.245Z,1.70
2023-04-28T15:35:17.571Z,1.40
2023-04-28T15:37:34.434Z,1.02
2023-04-28T15:39:51.272Z,2.67
2023-04-28T15:42:08.309Z,1.13
2023-04-28T15:44:25.335Z,1.90
2023-04-28T15:46:42.286Z,2.15
2023-04-28T15:48:59.331Z,1.20
2023-04-28T15:51:16.376Z,1.38
2023-04-28T15:53:33.626Z,1.27
2023-04-28T15:55:50.960Z,3.75
2023-04-28T15:58:07.998Z,2.00
2023-04-28T16:00:25.067Z,1.20
2023-04-28T16:02:42.221Z,3.22
2023-04-28T16:04:59.402Z,2.05
2023-04-28T16:07:16.403Z,2.40
2023-04-28T16:09:33.474Z,1.90
2023-04-28T16:11:50.570Z,304.27
2023-04-28T16:14:07.510Z,396.58
2023-04-28T16:16:24.524Z,113.07
2023-04-28T16:18:41.543Z,53.75
2023-04-28T16:20:58.513Z,40.95
2023-04-28T16:23:15.851Z,26.98
2023-04-28T16:25:33.078Z,10.00
2023-04-28T16:27:50.121Z,6.72
2023-04-28T16:30:08.030Z,3.20
2023-04-28T16:32:25.106Z,7.00
2023-04-28T16:34:43.194Z,9.50
2023-04-28T16:37:00.077Z,10.77
2023-04-28T16:39:17.380Z,9.23
2023-04-28T16:41:34.741Z,8.63
2023-04-28T16:43:51.688Z,2.75
2023-04-28T16:46:09.591Z,2.55
2023-04-28T16:48:26.651Z,2.05
2023-04-28T16:50:43.947Z,3.78
2023-04-28T16:53:00.873Z,1.60
2023-04-28T16:55:18.107Z,2.50
2023-04-28T16:57:35.326Z,3.40
2023-04-28T16:59:53.414Z,3.80
2023-04-28T17:02:10.729Z,2.10
2023-04-28T17:04:28.174Z,1.80
2023-04-28T17:06:46.660Z,2.95
2023-04-28T17:09:03.932Z,3.30
2023-04-28T17:11:22.213Z,2.45
2023-04-28T17:13:39.173Z,3.78
2023-04-28T17:15:56.447Z,2.85
2023-04-28T17:18:14.713Z,2.63
2023-04-28T17:20:31.636Z,3.72
2023-04-28T17:22:48.687Z,2.88
2023-04-28T17:25:06.007Z,3.53
2023-04-28T17:27:22.952Z,1.88
2023-04-28T17:29:40.951Z,3.88
2023-04-28T17:31:57.946Z,2.50
2023-04-28T17:34:15.050Z,3.65
2023-04-28T17:36:32.093Z,2.78
2023-04-28T17:38:49.105Z,4.28
2023-04-28T17:41:06.161Z,2.58
2023-04-28T17:43:23.475Z,2.92
2023-04-28T17:45:40.824Z,3.40
2023-04-28T17:47:58.712Z,3.10
2023-04-28T17:50:15.790Z,7.00
2023-04-28T17:52:32.836Z,3.63
2023-04-28T17:54:50.342Z,5.80
2023-04-28T17:57:07.731Z,4.10
2023-04-28T17:59:25.612Z,6.18
2023-04-28T18:01:42.997Z,2.25
2023-04-28T18:04:00.427Z,3.55
2023-04-28T18:06:17.317Z,4.60
2023-04-28T18:08:34.317Z,3.63
2023-04-28T18:10:51.352Z,2.65
2023-04-28T18:13:08.454Z,6.40
2023-04-28T18:15:25.807Z,5.32
2023-04-28T18:17:42.790Z,2.75
2023-04-28T18:19:59.855Z,6.22
2023-04-28T18:22:16.798Z,6.18
2023-04-28T18:24:34.815Z,4.82
2023-04-28T18:26:51.838Z,4.40
2023-04-28T18:29:09.878Z,8.02
2023-04-28T18:31:26.852Z,5.05
2023-04-28T18:33:45.152Z,3.13
2023-04-28T18:36:02.377Z,8.55
2023-04-28T18:38:20.423Z,3.28
2023-04-28T18:40:37.790Z,2.40
2023-04-28T18:42:55.919Z,5.63
2023-04-28T18:45:13.316Z,5.43
2023-04-28T18:47:30.616Z,3.45
2023-04-28T18:49:47.810Z,2.17
2023-04-28T18:52:05.236Z,4.47
2023-04-28T18:54:22.185Z,3.45
2023-04-28T18:56:39.263Z,4.53
2023-04-28T18:58:56.310Z,3.47
2023-04-28T19:01:13.401Z,3.45
2023-04-28T19:03:31.534Z,2.80
2023-04-28T19:05:48.782Z,3.63
2023-04-28T19:08:10.116Z,6.55
2023-04-28T19:10:28.934Z,5.93
2023-04-28T19:12:45.922Z,3.58
2023-04-28T19:15:03.050Z,6.07
2023-04-28T19:17:20.135Z,7.93
2023-04-28T19:19:37.173Z,5.10
2023-04-28T19:21:54.093Z,4.38
2023-04-28T19:24:11.194Z,7.13
2023-04-28T19:26:28.158Z,9.70
2023-04-28T19:28:45.152Z,8.73
2023-04-28T19:31:02.388Z,4.25
2023-04-28T19:33:20.426Z,6.88
2023-04-28T19:35:38.552Z,6.28
2023-04-28T19:37:55.837Z,7.50
2023-04-28T19:40:13.179Z,6.90
2023-04-28T19:42:30.123Z,3.33
2023-04-28T19:44:48.169Z,4.50
2023-04-28T19:47:05.339Z,4.07
2023-04-28T19:49:22.381Z,5.05
2023-04-28T19:51:39.677Z,6.78
2023-04-28T19:53:56.724Z,4.88
2023-04-28T19:56:13.724Z,7.10
2023-04-28T19:58:30.664Z,5.80
2023-04-28T20:00:47.607Z,10.77
2023-04-28T20:03:04.630Z,10.55
2023-04-28T20:05:23.072Z,4.97
2023-04-28T20:07:40.318Z,4.30
2023-04-28T20:09:57.633Z,5.53
2023-04-28T20:12:14.677Z,8.77
2023-04-28T20:14:31.525Z,10.45
2023-04-28T20:16:48.816Z,8.93
2023-04-28T20:19:05.728Z,7.30
2023-04-28T20:21:22.690Z,8.10
2023-04-28T20:23:40.991Z,6.72
2023-04-28T20:25:57.953Z,9.45
2023-04-28T20:28:15.231Z,8.45
2023-04-28T20:30:33.559Z,14.88
2023-04-28T20:32:50.538Z,6.40
2023-04-28T20:35:07.636Z,14.25
2023-04-28T20:37:24.957Z,9.70
2023-04-28T20:39:42.052Z,7.03
2023-04-28T20:41:58.974Z,6.60
2023-04-28T20:44:16.034Z,6.10
2023-04-28T20:46:33.317Z,6.10
2023-04-28T20:48:50.381Z,8.07
2023-04-28T20:51:07.665Z,7.43
2023-04-28T20:53:24.616Z,8.48
2023-04-28T20:55:41.958Z,14.90
2023-04-28T20:57:58.931Z,8.25
2023-04-28T21:00:16.040Z,9.45
2023-04-28T21:02:34.428Z,10.25
2023-04-28T21:04:51.638Z,8.32
2023-04-28T21:07:08.677Z,5.43
2023-04-28T21:09:25.731Z,5.68
2023-04-28T21:11:42.640Z,5.43
2023-04-28T21:13:59.736Z,10.13
2023-04-28T21:16:20.234Z,6.88
2023-04-28T21:18:38.115Z,11.35
2023-04-28T21:20:56.187Z,7.95
2023-04-28T21:23:13.272Z,11.05
2023-04-28T21:25:30.638Z,6.93
2023-04-28T21:27:47.643Z,8.60
2023-04-28T21:30:05.569Z,4.90
2023-04-28T21:32:23.669Z,10.07
2023-04-28T21:34:41.083Z,7.18
2023-04-28T21:36:58.193Z,4.25
2023-04-28T21:39:16.439Z,4.80
2023-04-28T21:41:33.377Z,3.35
2023-04-28T21:43:50.457Z,8.00
2023-04-28T21:46:07.583Z,3.78
2023-04-28T21:48:25.919Z,8.18
2023-04-28T21:50:42.932Z,5.80
2023-04-28T21:53:00.222Z,4.68
2023-04-28T21:55:17.493Z,5.97
2023-04-28T21:57:35.614Z,6.55
2023-04-28T21:59:53.054Z,5.88
2023-04-28T22:02:10.176Z,7.45
2023-04-28T22:04:28.322Z,8.02
2023-04-28T22:06:45.355Z,12.30
2023-04-28T22:09:03.671Z,7.10
2023-04-28T22:11:20.659Z,6.00
2023-04-28T22:13:37.907Z,5.97
2023-04-28T22:15:55.243Z,6.05
2023-04-28T22:18:12.695Z,3.40
2023-04-28T22:20:29.777Z,8.48
2023-04-28T22:22:46.987Z,11.95
2023-04-28T22:25:04.197Z,4.65
2023-04-28T22:27:21.498Z,7.43
2023-04-28T22:29:38.706Z,9.80
2023-04-28T22:31:55.686Z,7.65
2023-04-28T22:34:13.048Z,10.55
2023-04-28T22:36:31.376Z,8.48
2023-04-28T22:38:48.737Z,6.50
2023-04-28T22:41:05.799Z,6.55
2023-04-28T22:43:22.687Z,7.72
2023-04-28T22:45:40.001Z,4.30
2023-04-28T22:47:57.035Z,5.10
2023-04-28T22:50:14.127Z,9.30
2023-04-28T22:52:32.057Z,3.83
2023-04-28T22:54:49.029Z,7.53
2023-04-28T22:57:06.347Z,5.45
2023-04-28T22:59:23.443Z,5.05
2023-04-28T23:01:40.514Z,5.90
2023-04-28T23:03:57.686Z,5.72
2023-04-28T23:06:15.245Z,6.07
2023-04-28T23:08:32.512Z,5.53
2023-04-28T23:10:49.803Z,6.80
2023-04-28T23:13:07.248Z,8.13
2023-04-28T23:15:24.200Z,2.65
2023-04-28T23:17:41.620Z,11.43
2023-04-28T23:19:58.959Z,6.75
2023-04-28T23:22:16.007Z,7.05
2023-04-28T23:24:33.960Z,4.35
2023-04-28T23:26:50.986Z,6.60
2023-04-28T23:29:08.208Z,8.00
2023-04-28T23:31:25.280Z,7.68
2023-04-28T23:33:42.676Z,7.53
2023-04-28T23:35:59.578Z,6.72
2023-04-28T23:38:16.693Z,6.55
2023-04-28T23:40:34.624Z,7.75
2023-04-28T23:42:53.320Z,5.95
2023-04-28T23:45:10.235Z,8.00
2023-04-28T23:47:27.344Z,6.47
2023-04-28T23:49:44.651Z,11.57
2023-04-28T23:52:01.638Z,5.57
2023-04-28T23:54:19.103Z,6.55
2023-04-28T23:56:36.022Z,4.05
2023-04-28T23:58:53.070Z,7.60
